sensor_id;sensor_type;location;lat;lon;timestamp;P1;durP1;ratioP1;P2;durP2;ratioP2
58101;SDS011;52034;51.926;6.320;2022-11-20T00:00:31;18.97;;;15.30;;
58101;SDS011;52034;51.926;6.320;2022-11-20T00:01:31;20.73;;;15.83;;
58101;SDS011;52034;51.926;6.320;2022-11-20T00:02:31;21.23;;;15.13;;
58101;SDS011;52034;51.926;6.320;2022-11-20T00:03:32;22.20;;;14.80;;
58101;SDS011;52034;51.926;6.320;2022-11-20T00:04:32;18.57;;;14.80;;
58101;SDS011;52034;51.926;6.320;2022-11-20T00:05:33;18.97;;;14.67;;
58101;SDS011;52034;51.926;6.320;2022-11-20T00:06:33;20.00;;;14.77;;
58101;SDS011;52034;51.926;6.320;2022-11-20T00:07:34;20.53;;;15.03;;
58101;SDS011;52034;51.926;6.320;2022-11-20T00:08:34;19.73;;;14.77;;
58101;SDS011;52034;51.926;6.320;2022-11-20T00:09:35;20.80;;;15.43;;
58101;SDS011;52034;51.926;6.320;2022-11-20T00:10:38;20.60;;;15.30;;
58101;SDS011;52034;51.926;6.320;2022-11-20T00:11:39;20.58;;;15.60;;
58101;SDS011;52034;51.926;6.320;2022-11-20T00:12:40;20.83;;;14.70;;
58101;SDS011;52034;51.926;6.320;2022-11-20T00:13:40;20.93;;;15.50;;
58101;SDS011;52034;51.926;6.320;2022-11-20T00:14:40;21.07;;;15.43;;
58101;SDS011;52034;51.926;6.320;2022-11-20T00:15:41;20.17;;;14.90;;
58101;SDS011;52034;51.926;6.320;2022-11-20T00:16:41;19.40;;;15.43;;
58101;SDS011;52034;51.926;6.320;2022-11-20T00:17:42;21.47;;;15.33;;
58101;SDS011;52034;51.926;6.320;2022-11-20T00:18:42;20.63;;;15.40;;
58101;SDS011;52034;51.926;6.320;2022-11-20T00:19:43;22.05;;;15.30;;
58101;SDS011;52034;51.926;6.320;2022-11-20T00:20:44;20.47;;;15.47;;
58101;SDS011;52034;51.926;6.320;2022-11-20T00:21:44;19.17;;;14.87;;
58101;SDS011;52034;51.926;6.320;2022-11-20T00:22:44;20.50;;;15.63;;
58101;SDS011;52034;51.926;6.320;2022-11-20T00:23:45;20.37;;;15.77;;
58101;SDS011;52034;51.926;6.320;2022-11-20T00:24:45;19.73;;;15.38;;
58101;SDS011;52034;51.926;6.320;2022-11-20T00:25:46;22.97;;;15.43;;
58101;SDS011;52034;51.926;6.320;2022-11-20T00:26:46;18.70;;;14.90;;
58101;SDS011;52034;51.926;6.320;2022-11-20T00:27:47;19.63;;;14.83;;
58101;SDS011;52034;51.926;6.320;2022-11-20T00:28:51;20.67;;;15.07;;
58101;SDS011;52034;51.926;6.320;2022-11-20T00:29:56;19.23;;;14.45;;
58101;SDS011;52034;51.926;6.320;2022-11-20T00:31:09;20.67;;;15.20;;
58101;SDS011;52034;51.926;6.320;2022-11-20T00:32:10;21.08;;;15.45;;
58101;SDS011;52034;51.926;6.320;2022-11-20T00:33:10;22.10;;;15.77;;
58101;SDS011;52034;51.926;6.320;2022-11-20T00:34:11;22.47;;;16.10;;
58101;SDS011;52034;51.926;6.320;2022-11-20T00:35:11;22.47;;;16.00;;
58101;SDS011;52034;51.926;6.320;2022-11-20T00:36:13;21.57;;;15.90;;
58101;SDS011;52034;51.926;6.320;2022-11-20T00:37:18;21.85;;;16.33;;
58101;SDS011;52034;51.926;6.320;2022-11-20T00:38:18;22.97;;;16.40;;
58101;SDS011;52034;51.926;6.320;2022-11-20T00:39:19;20.17;;;14.97;;
58101;SDS011;52034;51.926;6.320;2022-11-20T00:40:19;20.40;;;15.13;;
58101;SDS011;52034;51.926;6.320;2022-11-20T00:41:19;20.43;;;14.53;;
58101;SDS011;52034;51.926;6.320;2022-11-20T00:42:21;18.83;;;14.68;;
58101;SDS011;52034;51.926;6.320;2022-11-20T00:43:21;18.90;;;14.57;;
58101;SDS011;52034;51.926;6.320;2022-11-20T00:44:21;19.00;;;14.93;;
58101;SDS011;52034;51.926;6.320;2022-11-20T00:45:22;20.57;;;15.20;;
58101;SDS011;52034;51.926;6.320;2022-11-20T00:46:23;19.67;;;15.03;;
58101;SDS011;52034;51.926;6.320;2022-11-20T00:47:25;18.85;;;14.65;;
58101;SDS011;52034;51.926;6.320;2022-11-20T00:48:26;20.03;;;15.00;;
58101;SDS011;52034;51.926;6.320;2022-11-20T00:49:27;18.15;;;14.75;;
58101;SDS011;52034;51.926;6.320;2022-11-20T00:50:27;21.27;;;14.93;;
58101;SDS011;52034;51.926;6.320;2022-11-20T00:51:27;20.07;;;14.97;;
58101;SDS011;52034;51.926;6.320;2022-11-20T00:52:28;18.20;;;14.60;;
58101;SDS011;52034;51.926;6.320;2022-11-20T00:53:28;17.40;;;13.90;;
58101;SDS011;52034;51.926;6.320;2022-11-20T00:54:28;19.83;;;14.27;;
58101;SDS011;52034;51.926;6.320;2022-11-20T00:55:29;18.73;;;14.97;;
58101;SDS011;52034;51.926;6.320;2022-11-20T00:56:29;21.43;;;15.23;;
58101;SDS011;52034;51.926;6.320;2022-11-20T00:57:29;19.70;;;14.77;;
58101;SDS011;52034;51.926;6.320;2022-11-20T00:58:31;19.87;;;15.00;;
58101;SDS011;52034;51.926;6.320;2022-11-20T00:59:33;22.80;;;16.80;;
58101;SDS011;52034;51.926;6.320;2022-11-20T01:00:33;21.13;;;15.40;;
58101;SDS011;52034;51.926;6.320;2022-11-20T01:01:34;21.20;;;15.82;;
58101;SDS011;52034;51.926;6.320;2022-11-20T01:02:36;24.00;;;16.63;;
58101;SDS011;52034;51.926;6.320;2022-11-20T01:03:37;23.23;;;16.30;;
58101;SDS011;52034;51.926;6.320;2022-11-20T01:04:40;20.70;;;16.02;;
58101;SDS011;52034;51.926;6.320;2022-11-20T01:05:40;24.97;;;16.87;;
58101;SDS011;52034;51.926;6.320;2022-11-20T01:06:41;23.13;;;16.33;;
58101;SDS011;52034;51.926;6.320;2022-11-20T01:07:41;22.03;;;16.20;;
58101;SDS011;52034;51.926;6.320;2022-11-20T01:08:42;20.90;;;15.10;;
58101;SDS011;52034;51.926;6.320;2022-11-20T01:09:43;22.50;;;16.65;;
58101;SDS011;52034;51.926;6.320;2022-11-20T01:10:43;25.03;;;17.07;;
58101;SDS011;52034;51.926;6.320;2022-11-20T01:11:44;23.97;;;17.33;;
58101;SDS011;52034;51.926;6.320;2022-11-20T01:12:45;25.95;;;16.83;;
58101;SDS011;52034;51.926;6.320;2022-11-20T01:14:06;23.65;;;16.15;;
58101;SDS011;52034;51.926;6.320;2022-11-20T01:15:09;24.40;;;17.13;;
58101;SDS011;52034;51.926;6.320;2022-11-20T01:16:11;23.03;;;16.80;;
58101;SDS011;52034;51.926;6.320;2022-11-20T01:17:16;22.67;;;16.83;;
58101;SDS011;52034;51.926;6.320;2022-11-20T01:18:16;22.30;;;16.90;;
58101;SDS011;52034;51.926;6.320;2022-11-20T01:19:18;23.97;;;16.67;;
58101;SDS011;52034;51.926;6.320;2022-11-20T01:20:20;24.63;;;15.98;;
58101;SDS011;52034;51.926;6.320;2022-11-20T01:21:21;21.17;;;16.13;;
58101;SDS011;52034;51.926;6.320;2022-11-20T01:22:26;21.98;;;15.90;;
58101;SDS011;52034;51.926;6.320;2022-11-20T01:23:29;21.93;;;16.10;;
58101;SDS011;52034;51.926;6.320;2022-11-20T01:24:30;23.02;;;16.15;;
58101;SDS011;52034;51.926;6.320;2022-11-20T01:25:31;19.70;;;15.67;;
58101;SDS011;52034;51.926;6.320;2022-11-20T01:26:33;21.27;;;16.00;;
58101;SDS011;52034;51.926;6.320;2022-11-20T01:27:35;24.98;;;15.77;;
58101;SDS011;52034;51.926;6.320;2022-11-20T01:28:36;21.17;;;15.60;;
58101;SDS011;52034;51.926;6.320;2022-11-20T01:29:36;23.13;;;15.77;;
58101;SDS011;52034;51.926;6.320;2022-11-20T01:30:36;19.00;;;15.10;;
58101;SDS011;52034;51.926;6.320;2022-11-20T01:31:37;19.97;;;16.30;;
58101;SDS011;52034;51.926;6.320;2022-11-20T01:32:37;22.07;;;15.37;;
58101;SDS011;52034;51.926;6.320;2022-11-20T01:33:38;19.53;;;15.43;;
58101;SDS011;52034;51.926;6.320;2022-11-20T01:35:39;22.10;;;15.90;;
58101;SDS011;52034;51.926;6.320;2022-11-20T01:36:40;23.37;;;16.30;;
58101;SDS011;52034;51.926;6.320;2022-11-20T01:37:41;22.67;;;16.17;;
58101;SDS011;52034;51.926;6.320;2022-11-20T01:38:42;23.20;;;17.73;;
58101;SDS011;52034;51.926;6.320;2022-11-20T01:39:43;25.43;;;17.77;;
58101;SDS011;52034;51.926;6.320;2022-11-20T01:40:43;23.70;;;17.77;;
58101;SDS011;52034;51.926;6.320;2022-11-20T01:41:44;24.23;;;17.50;;
58101;SDS011;52034;51.926;6.320;2022-11-20T01:43:16;22.88;;;17.23;;
58101;SDS011;52034;51.926;6.320;2022-11-20T01:44:22;24.13;;;16.90;;
58101;SDS011;52034;51.926;6.320;2022-11-20T01:45:59;23.17;;;16.90;;
58101;SDS011;52034;51.926;6.320;2022-11-20T01:47:05;25.52;;;17.20;;
58101;SDS011;52034;51.926;6.320;2022-11-20T01:48:08;22.65;;;16.63;;
58101;SDS011;52034;51.926;6.320;2022-11-20T01:49:11;20.17;;;16.23;;
58101;SDS011;52034;51.926;6.320;2022-11-20T01:50:21;20.27;;;15.07;;
58101;SDS011;52034;51.926;6.320;2022-11-20T01:53:21;21.10;;;15.90;;
58101;SDS011;52034;51.926;6.320;2022-11-20T01:54:06;22.95;;;16.05;;
58101;SDS011;52034;51.926;6.320;2022-11-20T01:55:17;22.52;;;15.73;;
58101;SDS011;52034;51.926;6.320;2022-11-20T01:56:19;21.77;;;15.52;;
58101;SDS011;52034;51.926;6.320;2022-11-20T01:57:20;25.73;;;16.53;;
58101;SDS011;52034;51.926;6.320;2022-11-20T01:58:22;24.08;;;16.05;;
58101;SDS011;52034;51.926;6.320;2022-11-20T01:59:28;20.90;;;15.88;;
58101;SDS011;52034;51.926;6.320;2022-11-20T02:00:29;22.60;;;15.85;;
58101;SDS011;52034;51.926;6.320;2022-11-20T02:01:30;21.83;;;15.63;;
58101;SDS011;52034;51.926;6.320;2022-11-20T02:02:31;22.07;;;16.37;;
58101;SDS011;52034;51.926;6.320;2022-11-20T02:03:32;24.40;;;16.58;;
58101;SDS011;52034;51.926;6.320;2022-11-20T02:04:32;21.47;;;16.30;;
58101;SDS011;52034;51.926;6.320;2022-11-20T02:05:35;19.70;;;15.60;;
58101;SDS011;52034;51.926;6.320;2022-11-20T02:07:59;22.17;;;16.80;;
58101;SDS011;52034;51.926;6.320;2022-11-20T02:09:00;22.30;;;16.27;;
58101;SDS011;52034;51.926;6.320;2022-11-20T02:10:00;20.97;;;15.57;;
58101;SDS011;52034;51.926;6.320;2022-11-20T02:11:01;21.58;;;16.17;;
58101;SDS011;52034;51.926;6.320;2022-11-20T02:12:03;25.25;;;16.90;;
58101;SDS011;52034;51.926;6.320;2022-11-20T02:13:03;21.70;;;16.13;;
58101;SDS011;52034;51.926;6.320;2022-11-20T02:14:23;24.85;;;16.83;;
58101;SDS011;52034;51.926;6.320;2022-11-20T02:15:24;25.67;;;17.08;;
58101;SDS011;52034;51.926;6.320;2022-11-20T02:16:25;24.07;;;17.00;;
58101;SDS011;52034;51.926;6.320;2022-11-20T02:17:28;25.75;;;17.25;;
58101;SDS011;52034;51.926;6.320;2022-11-20T02:18:30;25.77;;;17.20;;
58101;SDS011;52034;51.926;6.320;2022-11-20T02:20:32;24.10;;;17.13;;
58101;SDS011;52034;51.926;6.320;2022-11-20T02:21:55;23.40;;;17.27;;
58101;SDS011;52034;51.926;6.320;2022-11-20T02:24:30;23.15;;;16.48;;
58101;SDS011;52034;51.926;6.320;2022-11-20T02:25:31;24.42;;;17.05;;
58101;SDS011;52034;51.926;6.320;2022-11-20T02:26:35;23.55;;;17.98;;
58101;SDS011;52034;51.926;6.320;2022-11-20T02:27:41;25.55;;;16.75;;
58101;SDS011;52034;51.926;6.320;2022-11-20T02:28:41;24.57;;;16.93;;
58101;SDS011;52034;51.926;6.320;2022-11-20T02:29:44;23.57;;;16.50;;
58101;SDS011;52034;51.926;6.320;2022-11-20T02:30:48;23.90;;;16.23;;
58101;SDS011;52034;51.926;6.320;2022-11-20T02:31:48;21.10;;;16.63;;
58101;SDS011;52034;51.926;6.320;2022-11-20T02:32:48;23.80;;;17.00;;
58101;SDS011;52034;51.926;6.320;2022-11-20T02:33:54;24.63;;;16.97;;
58101;SDS011;52034;51.926;6.320;2022-11-20T02:34:55;25.33;;;16.95;;
58101;SDS011;52034;51.926;6.320;2022-11-20T02:35:56;21.98;;;16.02;;
58101;SDS011;52034;51.926;6.320;2022-11-20T02:36:57;23.83;;;16.63;;
58101;SDS011;52034;51.926;6.320;2022-11-20T02:37:59;21.50;;;15.68;;
58101;SDS011;52034;51.926;6.320;2022-11-20T02:39:03;25.38;;;16.40;;
58101;SDS011;52034;51.926;6.320;2022-11-20T02:40:04;23.92;;;16.45;;
58101;SDS011;52034;51.926;6.320;2022-11-20T02:41:04;20.02;;;14.25;;
58101;SDS011;52034;51.926;6.320;2022-11-20T02:42:05;24.83;;;16.97;;
58101;SDS011;52034;51.926;6.320;2022-11-20T02:43:05;21.40;;;15.83;;
58101;SDS011;52034;51.926;6.320;2022-11-20T02:44:06;23.55;;;16.17;;
58101;SDS011;52034;51.926;6.320;2022-11-20T02:45:06;24.00;;;16.60;;
58101;SDS011;52034;51.926;6.320;2022-11-20T02:46:07;21.37;;;15.63;;
58101;SDS011;52034;51.926;6.320;2022-11-20T02:47:08;22.60;;;15.73;;
58101;SDS011;52034;51.926;6.320;2022-11-20T02:48:09;23.27;;;16.20;;
58101;SDS011;52034;51.926;6.320;2022-11-20T02:49:09;21.77;;;16.43;;
58101;SDS011;52034;51.926;6.320;2022-11-20T02:50:09;20.37;;;15.47;;
58101;SDS011;52034;51.926;6.320;2022-11-20T02:51:10;19.92;;;14.93;;
58101;SDS011;52034;51.926;6.320;2022-11-20T02:52:11;21.60;;;15.40;;
58101;SDS011;52034;51.926;6.320;2022-11-20T02:53:11;20.87;;;15.40;;
58101;SDS011;52034;51.926;6.320;2022-11-20T02:54:11;21.97;;;15.73;;
58101;SDS011;52034;51.926;6.320;2022-11-20T02:55:12;22.57;;;15.50;;
58101;SDS011;52034;51.926;6.320;2022-11-20T02:56:12;22.47;;;17.00;;
58101;SDS011;52034;51.926;6.320;2022-11-20T02:57:12;21.63;;;16.33;;
58101;SDS011;52034;51.926;6.320;2022-11-20T02:58:13;19.33;;;15.00;;
58101;SDS011;52034;51.926;6.320;2022-11-20T02:59:13;23.00;;;15.63;;
58101;SDS011;52034;51.926;6.320;2022-11-20T03:00:13;20.47;;;15.30;;
58101;SDS011;52034;51.926;6.320;2022-11-20T03:01:14;23.23;;;16.30;;
58101;SDS011;52034;51.926;6.320;2022-11-20T03:02:14;21.30;;;16.10;;
58101;SDS011;52034;51.926;6.320;2022-11-20T03:03:15;22.40;;;15.77;;
58101;SDS011;52034;51.926;6.320;2022-11-20T03:04:15;21.13;;;15.27;;
58101;SDS011;52034;51.926;6.320;2022-11-20T03:05:16;20.77;;;15.30;;
58101;SDS011;52034;51.926;6.320;2022-11-20T03:06:16;21.73;;;15.80;;
58101;SDS011;52034;51.926;6.320;2022-11-20T03:07:17;21.40;;;16.50;;
58101;SDS011;52034;51.926;6.320;2022-11-20T03:08:17;21.87;;;15.83;;
58101;SDS011;52034;51.926;6.320;2022-11-20T03:09:17;20.20;;;15.67;;
58101;SDS011;52034;51.926;6.320;2022-11-20T03:10:18;23.93;;;16.97;;
58101;SDS011;52034;51.926;6.320;2022-11-20T03:11:18;22.53;;;16.20;;
58101;SDS011;52034;51.926;6.320;2022-11-20T03:12:18;23.87;;;16.80;;
58101;SDS011;52034;51.926;6.320;2022-11-20T03:13:19;22.10;;;16.20;;
58101;SDS011;52034;51.926;6.320;2022-11-20T03:14:19;22.23;;;16.20;;
58101;SDS011;52034;51.926;6.320;2022-11-20T03:15:19;21.90;;;16.13;;
58101;SDS011;52034;51.926;6.320;2022-11-20T03:16:21;22.20;;;16.30;;
58101;SDS011;52034;51.926;6.320;2022-11-20T03:17:22;22.02;;;15.55;;
58101;SDS011;52034;51.926;6.320;2022-11-20T03:18:23;20.27;;;15.80;;
58101;SDS011;52034;51.926;6.320;2022-11-20T03:19:23;21.97;;;16.13;;
58101;SDS011;52034;51.926;6.320;2022-11-20T03:20:23;24.80;;;17.60;;
58101;SDS011;52034;51.926;6.320;2022-11-20T03:21:24;23.20;;;16.37;;
58101;SDS011;52034;51.926;6.320;2022-11-20T03:22:24;23.53;;;16.23;;
58101;SDS011;52034;51.926;6.320;2022-11-20T03:23:25;22.23;;;16.07;;
58101;SDS011;52034;51.926;6.320;2022-11-20T03:24:25;20.40;;;15.93;;
58101;SDS011;52034;51.926;6.320;2022-11-20T03:25:26;23.15;;;16.85;;
58101;SDS011;52034;51.926;6.320;2022-11-20T03:26:27;23.17;;;16.40;;
58101;SDS011;52034;51.926;6.320;2022-11-20T03:27:31;22.37;;;15.37;;
58101;SDS011;52034;51.926;6.320;2022-11-20T03:28:33;21.20;;;15.15;;
58101;SDS011;52034;51.926;6.320;2022-11-20T03:29:34;21.93;;;16.53;;
58101;SDS011;52034;51.926;6.320;2022-11-20T03:30:35;23.20;;;16.50;;
58101;SDS011;52034;51.926;6.320;2022-11-20T03:31:36;23.03;;;16.77;;
58101;SDS011;52034;51.926;6.320;2022-11-20T03:32:40;22.27;;;16.23;;
58101;SDS011;52034;51.926;6.320;2022-11-20T03:33:41;21.43;;;15.13;;
58101;SDS011;52034;51.926;6.320;2022-11-20T03:34:42;24.00;;;16.63;;
58101;SDS011;52034;51.926;6.320;2022-11-20T03:35:42;27.87;;;17.53;;
58101;SDS011;52034;51.926;6.320;2022-11-20T03:36:42;21.20;;;16.40;;
58101;SDS011;52034;51.926;6.320;2022-11-20T03:37:43;22.92;;;17.02;;
58101;SDS011;52034;51.926;6.320;2022-11-20T03:38:46;23.92;;;16.95;;
58101;SDS011;52034;51.926;6.320;2022-11-20T03:39:46;23.02;;;16.75;;
58101;SDS011;52034;51.926;6.320;2022-11-20T03:40:47;23.47;;;16.90;;
58101;SDS011;52034;51.926;6.320;2022-11-20T03:41:48;21.65;;;15.70;;
58101;SDS011;52034;51.926;6.320;2022-11-20T03:42:49;21.20;;;15.93;;
58101;SDS011;52034;51.926;6.320;2022-11-20T03:43:50;23.90;;;15.83;;
58101;SDS011;52034;51.926;6.320;2022-11-20T03:44:51;21.30;;;15.35;;
58101;SDS011;52034;51.926;6.320;2022-11-20T03:45:51;23.57;;;16.13;;
58101;SDS011;52034;51.926;6.320;2022-11-20T03:46:52;23.50;;;16.83;;
58101;SDS011;52034;51.926;6.320;2022-11-20T03:47:52;22.57;;;15.87;;
58101;SDS011;52034;51.926;6.320;2022-11-20T03:48:53;21.13;;;15.90;;
58101;SDS011;52034;51.926;6.320;2022-11-20T03:49:53;20.37;;;15.73;;
58101;SDS011;52034;51.926;6.320;2022-11-20T03:51:07;25.83;;;16.73;;
58101;SDS011;52034;51.926;6.320;2022-11-20T03:52:08;24.13;;;16.73;;
58101;SDS011;52034;51.926;6.320;2022-11-20T03:53:09;22.80;;;16.47;;
58101;SDS011;52034;51.926;6.320;2022-11-20T03:54:09;25.30;;;15.80;;
58101;SDS011;52034;51.926;6.320;2022-11-20T03:55:10;25.80;;;17.07;;
58101;SDS011;52034;51.926;6.320;2022-11-20T03:56:10;22.10;;;16.47;;
58101;SDS011;52034;51.926;6.320;2022-11-20T03:57:11;24.33;;;15.85;;
58101;SDS011;52034;51.926;6.320;2022-11-20T03:58:12;23.33;;;16.37;;
58101;SDS011;52034;51.926;6.320;2022-11-20T03:59:13;25.48;;;16.52;;
58101;SDS011;52034;51.926;6.320;2022-11-20T04:00:13;19.80;;;15.97;;
58101;SDS011;52034;51.926;6.320;2022-11-20T04:01:21;21.67;;;15.88;;
58101;SDS011;52034;51.926;6.320;2022-11-20T04:02:23;23.10;;;16.45;;
58101;SDS011;52034;51.926;6.320;2022-11-20T04:03:23;22.63;;;16.43;;
58101;SDS011;52034;51.926;6.320;2022-11-20T04:04:23;23.67;;;16.13;;
58101;SDS011;52034;51.926;6.320;2022-11-20T04:05:24;23.73;;;17.17;;
58101;SDS011;52034;51.926;6.320;2022-11-20T04:06:25;22.20;;;15.83;;
58101;SDS011;52034;51.926;6.320;2022-11-20T04:07:30;24.80;;;16.52;;
58101;SDS011;52034;51.926;6.320;2022-11-20T04:08:30;23.77;;;16.53;;
58101;SDS011;52034;51.926;6.320;2022-11-20T04:09:31;21.57;;;16.33;;
58101;SDS011;52034;51.926;6.320;2022-11-20T04:10:31;22.13;;;16.43;;
58101;SDS011;52034;51.926;6.320;2022-11-20T04:11:33;20.50;;;16.33;;
58101;SDS011;52034;51.926;6.320;2022-11-20T04:12:35;22.02;;;16.90;;
58101;SDS011;52034;51.926;6.320;2022-11-20T04:13:36;25.73;;;17.77;;
58101;SDS011;52034;51.926;6.320;2022-11-20T04:14:36;22.03;;;16.67;;
58101;SDS011;52034;51.926;6.320;2022-11-20T04:15:37;23.40;;;16.57;;
58101;SDS011;52034;51.926;6.320;2022-11-20T04:16:37;22.43;;;16.37;;
58101;SDS011;52034;51.926;6.320;2022-11-20T04:17:37;23.20;;;16.73;;
58101;SDS011;52034;51.926;6.320;2022-11-20T04:18:38;23.60;;;16.77;;
58101;SDS011;52034;51.926;6.320;2022-11-20T04:19:38;24.52;;;17.40;;
58101;SDS011;52034;51.926;6.320;2022-11-20T04:20:39;22.40;;;17.00;;
58101;SDS011;52034;51.926;6.320;2022-11-20T04:21:39;24.50;;;16.70;;
58101;SDS011;52034;51.926;6.320;2022-11-20T04:22:40;24.27;;;16.65;;
58101;SDS011;52034;51.926;6.320;2022-11-20T04:23:41;22.83;;;16.87;;
58101;SDS011;52034;51.926;6.320;2022-11-20T04:24:41;24.13;;;16.80;;
58101;SDS011;52034;51.926;6.320;2022-11-20T04:25:41;23.53;;;17.10;;
58101;SDS011;52034;51.926;6.320;2022-11-20T04:26:42;21.87;;;16.33;;
58101;SDS011;52034;51.926;6.320;2022-11-20T04:27:42;21.73;;;16.27;;
58101;SDS011;52034;51.926;6.320;2022-11-20T04:28:43;22.77;;;16.13;;
58101;SDS011;52034;51.926;6.320;2022-11-20T04:29:43;22.20;;;16.23;;
58101;SDS011;52034;51.926;6.320;2022-11-20T04:30:43;24.23;;;16.60;;
58101;SDS011;52034;51.926;6.320;2022-11-20T04:31:44;26.30;;;17.67;;
58101;SDS011;52034;51.926;6.320;2022-11-20T04:32:44;25.20;;;17.37;;
58101;SDS011;52034;51.926;6.320;2022-11-20T04:33:45;23.57;;;16.77;;
58101;SDS011;52034;51.926;6.320;2022-11-20T04:34:46;21.88;;;17.10;;
58101;SDS011;52034;51.926;6.320;2022-11-20T04:35:46;23.63;;;16.60;;
58101;SDS011;52034;51.926;6.320;2022-11-20T04:36:47;23.77;;;16.52;;
58101;SDS011;52034;51.926;6.320;2022-11-20T04:37:50;24.67;;;17.03;;
58101;SDS011;52034;51.926;6.320;2022-11-20T04:38:52;25.15;;;16.92;;
58101;SDS011;52034;51.926;6.320;2022-11-20T04:39:57;22.73;;;16.38;;
58101;SDS011;52034;51.926;6.320;2022-11-20T04:40:58;23.40;;;16.80;;
58101;SDS011;52034;51.926;6.320;2022-11-20T04:42:03;22.55;;;16.90;;
58101;SDS011;52034;51.926;6.320;2022-11-20T04:43:22;23.17;;;17.15;;
58101;SDS011;52034;51.926;6.320;2022-11-20T04:44:22;23.97;;;16.93;;
58101;SDS011;52034;51.926;6.320;2022-11-20T04:45:22;25.73;;;17.70;;
58101;SDS011;52034;51.926;6.320;2022-11-20T04:46:23;24.80;;;16.90;;
58101;SDS011;52034;51.926;6.320;2022-11-20T04:47:23;21.53;;;16.93;;
58101;SDS011;52034;51.926;6.320;2022-11-20T04:48:24;26.80;;;17.13;;
58101;SDS011;52034;51.926;6.320;2022-11-20T04:49:26;24.92;;;16.08;;
58101;SDS011;52034;51.926;6.320;2022-11-20T04:50:26;21.13;;;15.97;;
58101;SDS011;52034;51.926;6.320;2022-11-20T04:51:26;20.37;;;15.50;;
58101;SDS011;52034;51.926;6.320;2022-11-20T04:52:27;21.20;;;15.70;;
58101;SDS011;52034;51.926;6.320;2022-11-20T04:53:27;23.83;;;16.53;;
58101;SDS011;52034;51.926;6.320;2022-11-20T04:54:28;22.07;;;16.00;;
58101;SDS011;52034;51.926;6.320;2022-11-20T04:55:28;23.03;;;16.10;;
58101;SDS011;52034;51.926;6.320;2022-11-20T04:56:28;20.90;;;15.80;;
58101;SDS011;52034;51.926;6.320;2022-11-20T04:57:29;21.13;;;14.90;;
58101;SDS011;52034;51.926;6.320;2022-11-20T04:58:29;22.57;;;15.53;;
58101;SDS011;52034;51.926;6.320;2022-11-20T04:59:29;25.40;;;16.43;;
58101;SDS011;52034;51.926;6.320;2022-11-20T05:00:30;23.23;;;16.70;;
58101;SDS011;52034;51.926;6.320;2022-11-20T05:01:30;23.27;;;16.50;;
58101;SDS011;52034;51.926;6.320;2022-11-20T05:02:31;23.07;;;16.33;;
58101;SDS011;52034;51.926;6.320;2022-11-20T05:03:32;23.05;;;16.67;;
58101;SDS011;52034;51.926;6.320;2022-11-20T05:04:32;24.17;;;16.83;;
58101;SDS011;52034;51.926;6.320;2022-11-20T05:05:35;22.93;;;16.60;;
58101;SDS011;52034;51.926;6.320;2022-11-20T05:06:36;25.83;;;16.23;;
58101;SDS011;52034;51.926;6.320;2022-11-20T05:07:36;21.47;;;16.20;;
58101;SDS011;52034;51.926;6.320;2022-11-20T05:08:36;24.60;;;16.57;;
58101;SDS011;52034;51.926;6.320;2022-11-20T05:09:37;22.55;;;16.23;;
58101;SDS011;52034;51.926;6.320;2022-11-20T05:10:37;22.87;;;15.90;;
58101;SDS011;52034;51.926;6.320;2022-11-20T05:11:38;23.40;;;16.07;;
58101;SDS011;52034;51.926;6.320;2022-11-20T05:12:38;21.30;;;16.00;;
58101;SDS011;52034;51.926;6.320;2022-11-20T05:13:39;23.30;;;16.27;;
58101;SDS011;52034;51.926;6.320;2022-11-20T05:14:39;26.98;;;18.10;;
58101;SDS011;52034;51.926;6.320;2022-11-20T05:15:40;21.57;;;16.80;;
58101;SDS011;52034;51.926;6.320;2022-11-20T05:16:40;23.73;;;16.13;;
58101;SDS011;52034;51.926;6.320;2022-11-20T05:17:40;24.57;;;16.73;;
58101;SDS011;52034;51.926;6.320;2022-11-20T05:18:41;20.93;;;16.30;;
58101;SDS011;52034;51.926;6.320;2022-11-20T05:19:42;22.40;;;16.45;;
58101;SDS011;52034;51.926;6.320;2022-11-20T05:20:42;24.10;;;16.63;;
58101;SDS011;52034;51.926;6.320;2022-11-20T05:21:43;23.73;;;17.23;;
58101;SDS011;52034;51.926;6.320;2022-11-20T05:22:43;23.77;;;16.77;;
58101;SDS011;52034;51.926;6.320;2022-11-20T05:23:44;25.20;;;17.07;;
58101;SDS011;52034;51.926;6.320;2022-11-20T05:24:44;23.98;;;17.13;;
58101;SDS011;52034;51.926;6.320;2022-11-20T05:25:45;25.23;;;17.30;;
58101;SDS011;52034;51.926;6.320;2022-11-20T05:26:45;26.23;;;16.23;;
58101;SDS011;52034;51.926;6.320;2022-11-20T05:27:45;21.47;;;15.07;;
58101;SDS011;52034;51.926;6.320;2022-11-20T05:28:46;24.03;;;16.47;;
58101;SDS011;52034;51.926;6.320;2022-11-20T05:29:46;22.05;;;16.45;;
58101;SDS011;52034;51.926;6.320;2022-11-20T05:30:47;24.37;;;16.37;;
58101;SDS011;52034;51.926;6.320;2022-11-20T05:31:47;20.37;;;15.93;;
58101;SDS011;52034;51.926;6.320;2022-11-20T05:32:48;22.33;;;15.47;;
58101;SDS011;52034;51.926;6.320;2022-11-20T05:33:48;20.00;;;15.87;;
58101;SDS011;52034;51.926;6.320;2022-11-20T05:34:48;22.50;;;16.43;;
58101;SDS011;52034;51.926;6.320;2022-11-20T05:35:49;24.30;;;16.73;;
58101;SDS011;52034;51.926;6.320;2022-11-20T05:36:49;21.67;;;15.87;;
58101;SDS011;52034;51.926;6.320;2022-11-20T05:37:50;23.33;;;16.37;;
58101;SDS011;52034;51.926;6.320;2022-11-20T05:38:50;22.13;;;16.10;;
58101;SDS011;52034;51.926;6.320;2022-11-20T05:39:50;22.43;;;16.27;;
58101;SDS011;52034;51.926;6.320;2022-11-20T05:40:51;23.00;;;16.93;;
58101;SDS011;52034;51.926;6.320;2022-11-20T05:41:51;20.93;;;16.30;;
58101;SDS011;52034;51.926;6.320;2022-11-20T05:43:11;22.50;;;16.42;;
58101;SDS011;52034;51.926;6.320;2022-11-20T05:44:12;21.60;;;15.93;;
58101;SDS011;52034;51.926;6.320;2022-11-20T05:45:12;21.70;;;16.00;;
58101;SDS011;52034;51.926;6.320;2022-11-20T05:46:13;21.47;;;16.70;;
58101;SDS011;52034;51.926;6.320;2022-11-20T05:47:15;24.02;;;15.98;;
58101;SDS011;52034;51.926;6.320;2022-11-20T05:48:15;22.17;;;16.77;;
58101;SDS011;52034;51.926;6.320;2022-11-20T05:49:16;23.07;;;15.97;;
58101;SDS011;52034;51.926;6.320;2022-11-20T05:50:16;21.67;;;16.27;;
58101;SDS011;52034;51.926;6.320;2022-11-20T05:51:18;21.53;;;16.70;;
58101;SDS011;52034;51.926;6.320;2022-11-20T05:52:19;24.48;;;17.08;;
58101;SDS011;52034;51.926;6.320;2022-11-20T05:53:20;21.73;;;15.95;;
58101;SDS011;52034;51.926;6.320;2022-11-20T05:54:20;25.97;;;17.13;;
58101;SDS011;52034;51.926;6.320;2022-11-20T05:55:20;23.07;;;16.57;;
58101;SDS011;52034;51.926;6.320;2022-11-20T05:56:21;24.50;;;16.70;;
58101;SDS011;52034;51.926;6.320;2022-11-20T05:57:22;22.48;;;16.30;;
58101;SDS011;52034;51.926;6.320;2022-11-20T05:58:22;23.93;;;16.53;;
58101;SDS011;52034;51.926;6.320;2022-11-20T05:59:23;22.13;;;16.00;;
58101;SDS011;52034;51.926;6.320;2022-11-20T06:00:23;22.33;;;15.90;;
58101;SDS011;52034;51.926;6.320;2022-11-20T06:01:24;22.87;;;16.30;;
58101;SDS011;52034;51.926;6.320;2022-11-20T06:02:25;26.08;;;16.65;;
58101;SDS011;52034;51.926;6.320;2022-11-20T06:03:26;22.57;;;16.27;;
58101;SDS011;52034;51.926;6.320;2022-11-20T06:04:26;23.43;;;16.83;;
58101;SDS011;52034;51.926;6.320;2022-11-20T06:05:26;22.90;;;16.03;;
58101;SDS011;52034;51.926;6.320;2022-11-20T06:06:27;24.97;;;16.33;;